createdAt,value
2024-01-29T00:00:21.599Z,98328.19
2024-01-29T00:02:50.607Z,98328.81
2024-01-29T00:05:17.887Z,98331.81
2024-01-29T00:07:44.615Z,98336.22
2024-01-29T00:10:14.093Z,98331.81
2024-01-29T00:12:43.085Z,98334.78
2024-01-29T00:15:09.881Z,98332.72
2024-01-29T00:17:41.271Z,98326.13
2024-01-29T00:20:08.792Z,98327.69
2024-01-29T00:22:35.487Z,98324.69
2024-01-29T00:25:04.577Z,98325.63
2024-01-29T00:27:33.639Z,98329.25
2024-01-29T00:30:03.222Z,98336.06
2024-01-29T00:32:30.541Z,98329.78
2024-01-29T00:34:57.332Z,98335.06
2024-01-29T00:37:24.663Z,98319.91
2024-01-29T00:39:53.945Z,98325.06
2024-01-29T00:42:22.908Z,98333.25
2024-01-29T00:44:51.760Z,98331.50
2024-01-29T00:47:19.292Z,98323.91
2024-01-29T00:49:46.151Z,98317.19
2024-01-29T00:52:15.129Z,98321.44
2024-01-29T00:54:43.896Z,98328.69
2024-01-29T00:57:11.670Z,98324.13
2024-01-29T00:59:40.468Z,98325.88
2024-01-29T01:02:07.253Z,98321.97
2024-01-29T01:04:36.489Z,98333.56
2024-01-29T01:07:05.459Z,98329.19
2024-01-29T01:09:32.180Z,98327.91
2024-01-29T01:12:01.511Z,98329.66
2024-01-29T01:14:32.939Z,98337.34
2024-01-29T01:16:59.607Z,98333.44
2024-01-29T01:19:26.325Z,98330.59
2024-01-29T01:21:53.022Z,98330.91
2024-01-29T01:24:24.396Z,98338.09
2024-01-29T01:26:51.097Z,98346.59
2024-01-29T01:29:19.212Z,98332.78
2024-01-29T01:31:45.903Z,98336.72
2024-01-29T01:34:15.125Z,98339.03
2024-01-29T01:36:44.205Z,98344.84
2024-01-29T01:39:11.614Z,98346.25
2024-01-29T01:41:40.447Z,98346.09
2024-01-29T01:44:07.197Z,98353.66
2024-01-29T01:46:34.010Z,98346.56
2024-01-29T01:49:01.321Z,98335.72
2024-01-29T01:51:30.488Z,98342.94
2024-01-29T01:54:01.999Z,98355.78
2024-01-29T01:56:36.328Z,98356.72
2024-01-29T01:59:05.821Z,98353.16
2024-01-29T02:01:38.321Z,98358.94
2024-01-29T02:04:05.264Z,98344.91
2024-01-29T02:06:32.326Z,98340.00
2024-01-29T02:08:59.981Z,98352.44
2024-01-29T02:11:26.597Z,98352.91
2024-01-29T02:13:55.396Z,98337.38
2024-01-29T02:16:22.019Z,98326.25
2024-01-29T02:18:51.165Z,98323.44
2024-01-29T02:21:17.883Z,98335.53
2024-01-29T02:23:47.750Z,98348.88
2024-01-29T02:26:17.112Z,98334.75
2024-01-29T02:28:43.721Z,98337.44
2024-01-29T02:31:15.355Z,98332.06
2024-01-29T02:33:42.078Z,98343.66
2024-01-29T02:36:11.706Z,98337.09
2024-01-29T02:38:38.522Z,98340.72
2024-01-29T02:41:07.448Z,98343.56
2024-01-29T02:43:34.070Z,98341.94
2024-01-29T02:46:03.232Z,98342.78
2024-01-29T02:48:29.956Z,98343.56
2024-01-29T02:50:56.579Z,98335.38
2024-01-29T02:53:25.537Z,98346.03
2024-01-29T02:55:54.579Z,98329.91
2024-01-29T02:58:23.682Z,98345.53
2024-01-29T03:00:52.999Z,98343.03
2024-01-29T03:03:19.691Z,98344.13
2024-01-29T03:05:49.454Z,98349.34
2024-01-29T03:08:18.876Z,98353.22
2024-01-29T03:10:45.814Z,98348.22
2024-01-29T03:13:14.905Z,98345.22
2024-01-29T03:15:46.580Z,98348.69
2024-01-29T03:18:16.067Z,98343.03
2024-01-29T03:20:44.982Z,98348.22
2024-01-29T03:23:16.435Z,98354.50
2024-01-29T03:25:43.000Z,98350.69
2024-01-29T03:28:11.916Z,98348.94
2024-01-29T03:30:38.766Z,98349.72
2024-01-29T03:33:05.620Z,98349.59
2024-01-29T03:35:32.291Z,98351.31
2024-01-29T03:38:03.620Z,98350.53
2024-01-29T03:40:32.464Z,98352.28
2024-01-29T03:43:01.509Z,98351.91
2024-01-29T03:45:31.178Z,98345.75
2024-01-29T03:48:00.440Z,98341.81
2024-01-29T03:50:27.054Z,98347.16
2024-01-29T03:52:53.644Z,98350.78
2024-01-29T03:55:20.354Z,98354.59
2024-01-29T03:57:49.433Z,98344.09
2024-01-29T04:00:20.091Z,98343.84
2024-01-29T04:02:51.148Z,98350.91
2024-01-29T04:05:20.646Z,98348.72
2024-01-29T04:07:47.409Z,98344.41
2024-01-29T04:10:16.790Z,98343.25
2024-01-29T04:12:43.819Z,98340.66
2024-01-29T04:15:10.657Z,98350.09
2024-01-29T04:17:37.491Z,98333.84
2024-01-29T04:20:07.193Z,98338.34
2024-01-29T04:22:36.614Z,98340.22
2024-01-29T04:25:08.337Z,98331.94
2024-01-29T04:27:37.486Z,98337.13
2024-01-29T04:30:04.633Z,98337.22
2024-01-29T04:32:33.349Z,98332.81
2024-01-29T04:35:00.109Z,98331.56
2024-01-29T04:37:29.100Z,98318.50
2024-01-29T04:39:58.800Z,98336.91
2024-01-29T04:42:26.192Z,98335.34
2024-01-29T04:44:52.808Z,98331.56
2024-01-29T04:47:22.597Z,98334.63
2024-01-29T04:49:49.211Z,98333.78
2024-01-29T04:52:15.861Z,98329.22
2024-01-29T04:54:44.837Z,98322.25
2024-01-29T04:57:13.656Z,98323.63
2024-01-29T04:59:40.238Z,98329.91
2024-01-29T05:02:06.832Z,98324.97
2024-01-29T05:04:38.309Z,98333.69
2024-01-29T05:07:07.199Z,98330.00
2024-01-29T05:09:33.831Z,98325.66
2024-01-29T05:12:03.421Z,98320.88
2024-01-29T05:14:32.283Z,98328.25
2024-01-29T05:17:03.842Z,98322.56
2024-01-29T05:19:32.862Z,98327.47
2024-01-29T05:21:59.634Z,98334.56
2024-01-29T05:24:29.314Z,98329.81
2024-01-29T05:26:55.960Z,98333.84
2024-01-29T05:29:26.049Z,98332.78
2024-01-29T05:31:52.664Z,98333.75
2024-01-29T05:34:19.385Z,98336.31
2024-01-29T05:36:46.047Z,98335.00
2024-01-29T05:39:14.844Z,98332.09
2024-01-29T05:41:41.473Z,98335.00
2024-01-29T05:44:08.241Z,98333.00
2024-01-29T05:46:34.883Z,98334.69
2024-01-29T05:49:01.611Z,98338.00
2024-01-29T05:51:31.264Z,98334.31
2024-01-29T05:53:57.874Z,98340.81
2024-01-29T05:56:26.655Z,98337.72
2024-01-29T05:58:55.527Z,98333.50
2024-01-29T06:01:22.305Z,98341.50
2024-01-29T06:03:51.203Z,98337.31
2024-01-29T06:06:25.064Z,98337.25
2024-01-29T06:08:51.683Z,98338.78
2024-01-29T06:11:18.574Z,98328.28
2024-01-29T06:13:45.259Z,98337.41
2024-01-29T06:16:12.005Z,98338.28
2024-01-29T06:18:41.094Z,98331.91
2024-01-29T06:21:10.705Z,98335.16
2024-01-29T06:23:37.335Z,98336.63
2024-01-29T06:26:07.424Z,98332.94
2024-01-29T06:28:34.032Z,98327.31
2024-01-29T06:31:03.361Z,98334.44
2024-01-29T06:33:32.230Z,98319.47
2024-01-29T06:36:00.974Z,98327.97
2024-01-29T06:38:31.267Z,98334.09
2024-01-29T06:40:58.506Z,98335.69
2024-01-29T06:43:25.358Z,98329.03
2024-01-29T06:45:54.258Z,98337.69
2024-01-29T06:48:20.881Z,98338.97
2024-01-29T06:50:47.519Z,98327.63
2024-01-29T06:53:14.219Z,98344.56
2024-01-29T06:55:41.089Z,98340.41
2024-01-29T06:58:09.986Z,98343.66
2024-01-29T07:00:39.060Z,98340.66
2024-01-29T07:03:06.225Z,98342.00
2024-01-29T07:05:35.113Z,98341.34
2024-01-29T07:08:06.815Z,98346.06
2024-01-29T07:10:36.132Z,98353.50
2024-01-29T07:13:02.756Z,98358.19
2024-01-29T07:15:29.926Z,98366.34
2024-01-29T07:17:56.656Z,98364.78
2024-01-29T07:20:24.652Z,98360.97
2024-01-29T07:22:52.241Z,98365.81
2024-01-29T07:25:18.978Z,98366.22
2024-01-29T07:27:47.949Z,98365.19
2024-01-29T07:30:15.332Z,98360.06
2024-01-29T07:32:43.417Z,98349.63
2024-01-29T07:35:10.919Z,98360.13
2024-01-29T07:37:39.838Z,98359.16
2024-01-29T07:40:09.012Z,98359.53
2024-01-29T07:42:35.754Z,98364.38
2024-01-29T07:45:02.747Z,98368.06
2024-01-29T07:47:31.715Z,98369.44
2024-01-29T07:49:58.316Z,98361.06
2024-01-29T07:52:25.070Z,98371.91
2024-01-29T07:54:53.759Z,98378.53
2024-01-29T07:57:20.415Z,98375.88
2024-01-29T07:59:47.204Z,98371.63
2024-01-29T08:02:14.620Z,98373.25
2024-01-29T08:04:43.707Z,98373.03
2024-01-29T08:07:12.744Z,98375.09
2024-01-29T08:09:42.480Z,98373.13
2024-01-29T08:12:09.390Z,98375.50
2024-01-29T08:14:38.551Z,98371.84
2024-01-29T08:17:07.237Z,98374.00
2024-01-29T08:19:34.285Z,98357.59
2024-01-29T08:22:01.256Z,98371.28
2024-01-29T08:24:28.162Z,98366.47
2024-01-29T08:26:59.667Z,98372.31
2024-01-29T08:29:31.344Z,98371.97
2024-01-29T08:32:00.207Z,98366.97
2024-01-29T08:34:30.901Z,98367.25
2024-01-29T08:37:00.370Z,98372.94
2024-01-29T08:39:29.337Z,98373.50
2024-01-29T08:42:04.508Z,98370.19
2024-01-29T08:44:31.139Z,98373.00
2024-01-29T08:47:00.795Z,98375.03
2024-01-29T08:49:32.292Z,98362.31
2024-01-29T08:51:58.894Z,98369.69
2024-01-29T08:54:27.928Z,98381.59
2024-01-29T08:56:54.641Z,98362.53
2024-01-29T08:59:22.326Z,98373.78
2024-01-29T09:01:51.877Z,98370.75
2024-01-29T09:04:21.690Z,98374.38
2024-01-29T09:06:48.439Z,98376.66
2024-01-29T09:09:17.573Z,98379.75
2024-01-29T09:11:47.384Z,98385.75
2024-01-29T09:14:14.288Z,98377.25
2024-01-29T09:16:40.979Z,98385.22
2024-01-29T09:19:12.228Z,98388.84
2024-01-29T09:21:48.055Z,98391.25
2024-01-29T09:24:14.688Z,98388.81
2024-01-29T09:26:41.283Z,98392.88
2024-01-29T09:29:07.882Z,98396.63
2024-01-29T09:31:36.864Z,98392.50
2024-01-29T09:34:08.201Z,98384.28
2024-01-29T09:36:37.983Z,98388.56
2024-01-29T09:39:04.730Z,98387.69
2024-01-29T09:41:38.778Z,98392.19
2024-01-29T09:44:15.817Z,98395.66
2024-01-29T09:46:45.500Z,98394.34
2024-01-29T09:49:12.222Z,98391.09
2024-01-29T09:51:39.392Z,98397.63
2024-01-29T09:54:12.673Z,98398.38
2024-01-29T09:56:39.334Z,98397.53
2024-01-29T09:59:05.936Z,98400.94
2024-01-29T10:01:36.694Z,98400.31
2024-01-29T10:04:06.384Z,98397.47
2024-01-29T10:06:37.863Z,98405.88
2024-01-29T10:09:10.016Z,98405.84
2024-01-29T10:11:40.398Z,98399.34
2024-01-29T10:14:08.168Z,98395.19
2024-01-29T10:16:37.075Z,98399.69
2024-01-29T10:19:04.565Z,98400.91
2024-01-29T10:21:49.247Z,98407.81
2024-01-29T10:24:21.057Z,98408.00
2024-01-29T10:26:47.704Z,98405.16
2024-01-29T10:29:17.738Z,98412.59
2024-01-29T10:31:44.564Z,98404.03
2024-01-29T10:34:13.512Z,98398.66
2024-01-29T10:36:41.651Z,98400.88
2024-01-29T10:39:15.681Z,98398.72
2024-01-29T10:41:44.322Z,98399.16
2024-01-29T10:44:18.921Z,98390.81
2024-01-29T10:46:48.300Z,98383.28
2024-01-29T10:49:16.672Z,98393.72
2024-01-29T10:51:48.594Z,98386.19
2024-01-29T10:54:16.594Z,98384.75
2024-01-29T10:56:43.436Z,98379.78
2024-01-29T10:59:13.635Z,98377.47
2024-01-29T11:01:44.469Z,98384.09
2024-01-29T11:04:22.207Z,98371.09
2024-01-29T11:06:58.965Z,98373.09
2024-01-29T11:09:28.626Z,98367.72
2024-01-29T11:11:56.403Z,98368.22
2024-01-29T11:14:23.240Z,98363.22
2024-01-29T11:16:53.736Z,98362.31
2024-01-29T11:19:30.363Z,98354.28
2024-01-29T11:22:02.079Z,98356.00
2024-01-29T11:24:29.009Z,98353.41
2024-01-29T11:27:06.962Z,98346.44
2024-01-29T11:29:37.289Z,98344.78
2024-01-29T11:32:10.869Z,98340.69
2024-01-29T11:34:38.229Z,98347.19
2024-01-29T11:37:05.100Z,98342.25
2024-01-29T11:39:31.804Z,98335.94
2024-01-29T11:42:05.639Z,98336.50
2024-01-29T11:44:32.831Z,98335.47
2024-01-29T11:47:09.646Z,98339.00
2024-01-29T11:49:39.672Z,98338.81
2024-01-29T11:52:10.685Z,98332.63
2024-01-29T11:54:42.936Z,98331.84
2024-01-29T11:57:09.594Z,98318.13
2024-01-29T11:59:47.732Z,98326.50
2024-01-29T12:02:14.431Z,98322.25
2024-01-29T12:04:44.639Z,98322.31
2024-01-29T12:07:13.532Z,98320.75
2024-01-29T12:09:40.220Z,98322.38
2024-01-29T12:12:11.231Z,98312.47
2024-01-29T12:14:40.376Z,98318.56
2024-01-29T12:17:13.385Z,98306.13
2024-01-29T12:19:40.519Z,98305.53
2024-01-29T12:22:13.659Z,98305.56
2024-01-29T12:24:40.437Z,98313.69
2024-01-29T12:27:10.891Z,98310.47
2024-01-29T12:29:38.014Z,98307.69
2024-01-29T12:32:10.653Z,98310.50
2024-01-29T12:34:47.003Z,98274.00
2024-01-29T12:37:27.193Z,98296.06
2024-01-29T12:39:55.851Z,98298.59
2024-01-29T12:42:24.280Z,98299.50
2024-01-29T12:44:56.259Z,98303.03
2024-01-29T12:47:26.543Z,98294.63
2024-01-29T12:49:55.743Z,98293.22
2024-01-29T12:52:24.751Z,98285.13
2024-01-29T12:54:51.840Z,98278.59
2024-01-29T12:57:20.932Z,98281.03
2024-01-29T12:59:47.577Z,98278.94
2024-01-29T13:02:16.423Z,98275.91
2024-01-29T13:04:43.120Z,98269.44
2024-01-29T13:07:09.971Z,98274.44
2024-01-29T13:09:39.991Z,98272.16
2024-01-29T13:12:09.010Z,98262.94
2024-01-29T13:14:35.652Z,98262.94
2024-01-29T13:17:02.284Z,98257.25
2024-01-29T13:19:31.143Z,98258.03
2024-01-29T13:21:57.869Z,98268.84
2024-01-29T13:24:29.550Z,98264.63
2024-01-29T13:26:56.767Z,98256.53
2024-01-29T13:29:26.963Z,98268.13
2024-01-29T13:31:57.288Z,98267.75
2024-01-29T13:34:25.935Z,98263.59
2024-01-29T13:36:56.986Z,98263.94
2024-01-29T13:39:23.913Z,98256.69
2024-01-29T13:41:53.622Z,98262.22
2024-01-29T13:44:20.877Z,98252.28
2024-01-29T13:46:47.734Z,98249.94
2024-01-29T13:49:19.578Z,98260.31
2024-01-29T13:51:46.441Z,98248.84
2024-01-29T13:54:13.920Z,98250.09
2024-01-29T13:56:40.714Z,98233.44
2024-01-29T13:59:09.661Z,98248.59
2024-01-29T14:01:42.739Z,98250.94
2024-01-29T14:04:14.402Z,98240.06
2024-01-29T14:06:42.187Z,98248.19
2024-01-29T14:09:09.621Z,98238.84
2024-01-29T14:11:36.361Z,98239.72
2024-01-29T14:14:05.549Z,98234.34
2024-01-29T14:16:34.352Z,98243.91
2024-01-29T14:19:04.186Z,98241.19
2024-01-29T14:21:30.900Z,98223.41
2024-01-29T14:24:00.572Z,98235.50
2024-01-29T14:26:27.222Z,98240.91
2024-01-29T14:28:53.836Z,98233.47
2024-01-29T14:31:20.560Z,98240.47
2024-01-29T14:33:48.070Z,98238.59
2024-01-29T14:36:19.522Z,98232.44
2024-01-29T14:38:49.043Z,98231.59
2024-01-29T14:41:17.932Z,98235.44
2024-01-29T14:43:48.823Z,98234.25
2024-01-29T14:46:15.415Z,98235.75
2024-01-29T14:48:42.354Z,98236.28
2024-01-29T14:51:11.861Z,98231.44
2024-01-29T14:53:45.798Z,98233.16
2024-01-29T14:56:14.016Z,98231.53
2024-01-29T14:58:43.590Z,98226.25
2024-01-29T15:01:12.630Z,98229.69
2024-01-29T15:03:41.597Z,98228.91
2024-01-29T15:06:08.552Z,98229.69
2024-01-29T15:08:43.504Z,98234.38
2024-01-29T15:11:11.053Z,98232.47
2024-01-29T15:13:39.916Z,98237.22
2024-01-29T15:16:07.690Z,98231.09
2024-01-29T15:18:36.774Z,98229.91
2024-01-29T15:21:05.677Z,98223.69
2024-01-29T15:23:32.382Z,98231.47
2024-01-29T15:25:58.983Z,98211.63
2024-01-29T15:28:25.929Z,98223.69
2024-01-29T15:30:55.445Z,98222.56
2024-01-29T15:33:24.282Z,98224.41
2024-01-29T15:35:50.919Z,98226.69
2024-01-29T15:38:19.701Z,98234.72
2024-01-29T15:40:53.631Z,98226.94
2024-01-29T15:43:20.550Z,98230.75
2024-01-29T15:45:48.602Z,98225.63
2024-01-29T15:48:21.033Z,98219.91
2024-01-29T15:50:50.574Z,98221.41
2024-01-29T15:53:17.180Z,98222.91
2024-01-29T15:55:43.824Z,98223.63
2024-01-29T15:58:12.630Z,98233.25
2024-01-29T16:00:39.407Z,98227.72
2024-01-29T16:03:08.472Z,98233.28
2024-01-29T16:05:39.918Z,98238.13
2024-01-29T16:08:10.863Z,98240.22
2024-01-29T16:10:37.958Z,98243.97
2024-01-29T16:13:06.910Z,98249.19
2024-01-29T16:15:36.315Z,98244.97
2024-01-29T16:18:07.818Z,98244.81
2024-01-29T16:20:42.616Z,98247.94
2024-01-29T16:23:09.472Z,98245.91
2024-01-29T16:25:36.087Z,98252.69
2024-01-29T16:28:02.908Z,98249.84
2024-01-29T16:30:29.577Z,98246.66
2024-01-29T16:32:58.367Z,98261.13
2024-01-29T16:35:27.310Z,98264.56
2024-01-29T16:37:54.053Z,98259.53
2024-01-29T16:40:25.796Z,98263.25
2024-01-29T16:42:59.798Z,98266.97
2024-01-29T16:45:28.954Z,98277.22
2024-01-29T16:47:57.708Z,98271.59
2024-01-29T16:50:25.448Z,98277.06
2024-01-29T16:52:54.773Z,98265.25
2024-01-29T16:55:21.409Z,98288.84
2024-01-29T16:57:48.117Z,98291.72
2024-01-29T17:00:15.406Z,98283.13
2024-01-29T17:02:42.035Z,98283.88
2024-01-29T17:05:11.585Z,98288.81
2024-01-29T17:07:38.532Z,98294.47
2024-01-29T17:10:06.262Z,98291.72
2024-01-29T17:12:32.955Z,98290.22
2024-01-29T17:14:59.658Z,98287.47
2024-01-29T17:17:26.334Z,98289.81
2024-01-29T17:19:53.142Z,98287.81
2024-01-29T17:22:22.455Z,98284.28
2024-01-29T17:24:49.175Z,98301.97
2024-01-29T17:27:15.850Z,98295.63
2024-01-29T17:29:44.929Z,98294.16
2024-01-29T17:32:11.513Z,98293.25
2024-01-29T17:34:39.189Z,98297.91
2024-01-29T17:37:08.362Z,98304.63
2024-01-29T17:39:38.778Z,98299.69
2024-01-29T17:42:05.505Z,98300.28
2024-01-29T17:44:34.412Z,98298.97
2024-01-29T17:47:01.136Z,98300.94
2024-01-29T17:49:32.122Z,98306.13
2024-01-29T17:52:01.406Z,98301.75
2024-01-29T17:54:28.043Z,98315.44
2024-01-29T17:56:54.617Z,98297.63
2024-01-29T17:59:23.456Z,98312.22
2024-01-29T18:01:50.139Z,98308.50
2024-01-29T18:04:18.427Z,98310.94
2024-01-29T18:06:50.746Z,98319.00
2024-01-29T18:09:17.525Z,98313.53
2024-01-29T18:11:44.239Z,98314.56
2024-01-29T18:14:13.063Z,98318.69
2024-01-29T18:16:39.666Z,98324.41
2024-01-29T18:19:09.136Z,98317.47
2024-01-29T18:21:39.449Z,98319.41
2024-01-29T18:24:11.008Z,98311.56
2024-01-29T18:26:41.074Z,98314.25
2024-01-29T18:29:07.870Z,98315.38
2024-01-29T18:31:37.050Z,98318.66
2024-01-29T18:34:06.710Z,98329.84
2024-01-29T18:36:33.486Z,98320.88
2024-01-29T18:39:03.300Z,98327.72
2024-01-29T18:41:30.064Z,98326.94
2024-01-29T18:43:59.161Z,98325.69
2024-01-29T18:46:25.865Z,98326.63
2024-01-29T18:48:52.733Z,98326.53
2024-01-29T18:51:31.626Z,98329.88
2024-01-29T18:54:00.670Z,98336.03
2024-01-29T18:56:31.594Z,98346.66
2024-01-29T18:58:58.494Z,98339.72
2024-01-29T19:01:25.716Z,98340.50
2024-01-29T19:04:01.929Z,98345.41
2024-01-29T19:06:31.603Z,98343.88
2024-01-29T19:08:58.470Z,98345.00
2024-01-29T19:11:28.831Z,98348.78
2024-01-29T19:13:55.450Z,98347.22
2024-01-29T19:16:26.832Z,98333.69
2024-01-29T19:18:53.482Z,98343.66
2024-01-29T19:21:22.630Z,98343.09
2024-01-29T19:23:49.235Z,98336.16
2024-01-29T19:26:18.154Z,98340.31
2024-01-29T19:28:44.774Z,98352.16
2024-01-29T19:31:16.148Z,98349.78
2024-01-29T19:33:43.848Z,98348.22
2024-01-29T19:36:17.205Z,98357.84
2024-01-29T19:38:43.805Z,98346.69
2024-01-29T19:41:12.931Z,98350.56
2024-01-29T19:43:39.549Z,98353.13
2024-01-29T19:46:06.276Z,98349.25
2024-01-29T19:48:33.119Z,98342.44
2024-01-29T19:51:02.037Z,98346.56
2024-01-29T19:53:28.596Z,98354.41
2024-01-29T19:55:58.269Z,98341.19
2024-01-29T19:58:24.941Z,98353.03
2024-01-29T20:00:51.693Z,98344.66
2024-01-29T20:03:18.398Z,98344.41
2024-01-29T20:05:49.376Z,98361.06
2024-01-29T20:08:19.259Z,98366.31
2024-01-29T20:10:46.498Z,98363.41
2024-01-29T20:13:16.022Z,98356.41
2024-01-29T20:15:42.912Z,98360.97
2024-01-29T20:18:09.651Z,98362.56
2024-01-29T20:20:36.378Z,98351.34
2024-01-29T20:23:03.020Z,98362.53
2024-01-29T20:25:29.653Z,98360.50
2024-01-29T20:27:58.704Z,98357.69
2024-01-29T20:30:30.151Z,98357.28
2024-01-29T20:32:59.290Z,98355.56
2024-01-29T20:35:26.028Z,98353.22
2024-01-29T20:37:57.286Z,98362.69
2024-01-29T20:40:29.378Z,98351.75
2024-01-29T20:43:00.499Z,98355.78
2024-01-29T20:45:31.587Z,98356.56
2024-01-29T20:47:58.400Z,98359.72
2024-01-29T20:50:25.157Z,98358.03
2024-01-29T20:52:52.869Z,98368.50
2024-01-29T20:55:20.541Z,98367.38
2024-01-29T20:57:48.412Z,98347.28
2024-01-29T21:00:15.590Z,98360.91
2024-01-29T21:02:44.454Z,98361.03
2024-01-29T21:05:21.365Z,98358.13
2024-01-29T21:07:50.633Z,98360.47
2024-01-29T21:10:19.873Z,98358.56
2024-01-29T21:12:47.506Z,98358.22
2024-01-29T21:15:16.806Z,98355.34
2024-01-29T21:17:45.782Z,98354.25
2024-01-29T21:20:22.761Z,98359.94
2024-01-29T21:22:49.348Z,98361.69
2024-01-29T21:25:16.244Z,98356.22
2024-01-29T21:27:43.373Z,98355.56
2024-01-29T21:30:11.911Z,98357.47
2024-01-29T21:32:38.996Z,98356.34
2024-01-29T21:35:08.743Z,98353.69
2024-01-29T21:37:37.851Z,98342.09
2024-01-29T21:40:05.404Z,98354.75
2024-01-29T21:42:32.257Z,98362.78
2024-01-29T21:45:03.921Z,98370.34
2024-01-29T21:47:35.160Z,98364.94
2024-01-29T21:50:04.770Z,98369.75
2024-01-29T21:52:31.778Z,98372.75
2024-01-29T21:54:58.652Z,98371.53
2024-01-29T21:57:30.064Z,98368.97
2024-01-29T22:00:01.724Z,98376.66
2024-01-29T22:02:28.309Z,98373.88
2024-01-29T22:04:59.997Z,98374.31
2024-01-29T22:07:28.475Z,98367.53
2024-01-29T22:09:56.496Z,98370.91
2024-01-29T22:12:27.805Z,98369.63
2024-01-29T22:14:54.501Z,98375.56
2024-01-29T22:17:21.098Z,98362.03
2024-01-29T22:19:47.804Z,98370.81
2024-01-29T22:22:16.799Z,98372.25
2024-01-29T22:24:45.720Z,98378.09
2024-01-29T22:27:12.329Z,98378.84
2024-01-29T22:29:40.334Z,98387.25
2024-01-29T22:32:07.882Z,98381.50
2024-01-29T22:34:35.797Z,98389.16
2024-01-29T22:37:02.507Z,98390.72
2024-01-29T22:39:29.205Z,98388.81
2024-01-29T22:41:58.020Z,98386.22
2024-01-29T22:44:24.649Z,98382.44
2024-01-29T22:46:51.287Z,98395.13
2024-01-29T22:49:18.869Z,98394.03
2024-01-29T22:51:50.672Z,98385.06
2024-01-29T22:54:17.308Z,98385.59
2024-01-29T22:56:43.926Z,98398.97
2024-01-29T22:59:10.766Z,98405.41
2024-01-29T23:01:37.540Z,98399.78
2024-01-29T23:04:04.421Z,98404.69
2024-01-29T23:06:31.179Z,98409.34
2024-01-29T23:09:00.131Z,98400.44
2024-01-29T23:11:26.677Z,98406.56
2024-01-29T23:13:53.368Z,98395.09
2024-01-29T23:16:20.092Z,98407.19
2024-01-29T23:18:46.902Z,98407.66
2024-01-29T23:21:16.276Z,98408.56
2024-01-29T23:23:45.986Z,98403.56
2024-01-29T23:26:17.061Z,98411.81
2024-01-29T23:28:43.685Z,98410.34
2024-01-29T23:31:10.330Z,98392.06
2024-01-29T23:33:37.197Z,98398.22
2024-01-29T23:36:04.484Z,98401.31
2024-01-29T23:38:31.120Z,98399.13
2024-01-29T23:41:00.012Z,98400.88
2024-01-29T23:43:31.519Z,98407.31
2024-01-29T23:46:00.405Z,98412.31
2024-01-29T23:48:29.335Z,98407.13
2024-01-29T23:50:58.171Z,98405.56
2024-01-29T23:53:27.173Z,98409.03
2024-01-29T23:55:53.797Z,98402.88
2024-01-29T23:58:20.587Z,98402.78
